createdAt,value
2017-11-03T00:01:54.037Z,69.77
2017-11-03T00:04:20.342Z,74.10
2017-11-03T00:06:46.603Z,75.97
2017-11-03T00:09:12.878Z,75.10
2017-11-03T00:11:39.158Z,81.23
2017-11-03T00:14:05.422Z,79.87
2017-11-03T00:16:32.423Z,77.10
2017-11-03T00:18:58.710Z,72.17
2017-11-03T00:21:25.746Z,75.83
2017-11-03T00:23:52.058Z,67.03
2017-11-03T00:26:19.177Z,74.77
2017-11-03T00:28:45.542Z,79.90
2017-11-03T00:31:12.614Z,70.33
2017-11-03T00:33:38.909Z,69.93
2017-11-03T00:36:05.194Z,73.67
2017-11-03T00:38:31.482Z,76.33
2017-11-03T00:40:57.770Z,75.77
2017-11-03T00:43:24.062Z,74.60
2017-11-03T00:45:50.346Z,68.73
2017-11-03T00:48:16.624Z,76.03
2017-11-03T00:50:42.891Z,70.90
2017-11-03T00:53:09.174Z,67.97
2017-11-03T00:55:35.465Z,73.87
2017-11-03T00:58:02.596Z,71.00
2017-11-03T01:00:28.895Z,76.53
2017-11-03T01:02:55.218Z,68.43
2017-11-03T01:05:21.535Z,72.00
2017-11-03T01:07:48.555Z,71.30
2017-11-03T01:10:14.821Z,71.80
2017-11-03T01:12:41.096Z,66.27
2017-11-03T01:15:07.382Z,76.20
2017-11-03T01:17:33.662Z,70.73
2017-11-03T01:20:00.678Z,72.47
2017-11-03T01:22:26.783Z,64.83
2017-11-03T01:24:53.090Z,76.50
2017-11-03T01:27:19.502Z,69.60
2017-11-03T01:29:45.791Z,68.80
2017-11-03T01:32:12.076Z,72.73
2017-11-03T01:34:38.420Z,80.73
2017-11-03T01:37:04.859Z,68.90
2017-11-03T01:39:31.145Z,82.30
2017-11-03T01:41:58.164Z,80.07
2017-11-03T01:44:24.467Z,87.40
2017-11-03T01:46:50.761Z,95.57
2017-11-03T01:49:17.066Z,90.80
2017-11-03T01:51:43.363Z,108.97
2017-11-03T01:54:09.665Z,90.57
2017-11-03T01:56:35.962Z,106.93
2017-11-03T01:59:02.994Z,98.93
2017-11-03T02:01:29.304Z,104.70
2017-11-03T02:03:55.586Z,111.20
2017-11-03T02:06:21.899Z,108.40
2017-11-03T02:08:48.222Z,113.70
2017-11-03T02:11:15.258Z,116.93
2017-11-03T02:13:42.302Z,121.57
2017-11-03T02:16:09.406Z,105.50
2017-11-03T02:18:35.506Z,107.67
2017-11-03T02:21:01.796Z,97.73
2017-11-03T02:23:28.094Z,107.83
2017-11-03T02:25:54.380Z,94.73
2017-11-03T02:28:21.414Z,86.97
2017-11-03T02:30:47.699Z,91.87
2017-11-03T02:33:14.042Z,82.93
2017-11-03T02:35:40.862Z,91.80
2017-11-03T02:38:07.219Z,96.73
2017-11-03T02:40:33.475Z,108.13
2017-11-03T02:43:00.766Z,85.17
2017-11-03T02:45:27.052Z,88.17
2017-11-03T02:47:54.071Z,98.20
2017-11-03T02:50:20.441Z,95.47
2017-11-03T02:52:46.730Z,77.67
2017-11-03T02:55:13.020Z,84.40
2017-11-03T02:57:39.378Z,78.33
2017-11-03T03:00:06.426Z,79.30
2017-11-03T03:02:32.702Z,92.03
2017-11-03T03:04:58.987Z,75.33
2017-11-03T03:07:25.287Z,87.90
2017-11-03T03:09:51.574Z,78.37
2017-11-03T03:12:17.869Z,79.40
2017-11-03T03:14:44.951Z,76.87
2017-11-03T03:17:11.265Z,78.53
2017-11-03T03:19:37.566Z,81.17
2017-11-03T03:22:03.833Z,83.07
2017-11-03T03:24:30.879Z,87.53
2017-11-03T03:26:57.263Z,77.50
2017-11-03T03:29:23.554Z,91.33
2017-11-03T03:31:50.616Z,80.53
2017-11-03T03:34:16.901Z,87.10
2017-11-03T03:36:43.190Z,87.50
2017-11-03T03:39:09.472Z,85.87
2017-11-03T03:41:36.515Z,87.37
2017-11-03T03:44:03.557Z,95.47
2017-11-03T03:46:30.599Z,92.20
2017-11-03T03:48:57.625Z,91.90
2017-11-03T03:51:23.713Z,94.23
2017-11-03T03:53:50.003Z,98.23
2017-11-03T03:56:16.316Z,94.27
2017-11-03T03:58:43.343Z,97.60
2017-11-03T04:01:09.608Z,98.20
2017-11-03T04:03:36.641Z,100.00
2017-11-03T04:06:02.732Z,92.60
2017-11-03T04:08:29.031Z,98.90
2017-11-03T04:10:55.309Z,108.60
2017-11-03T04:13:21.600Z,105.27
2017-11-03T04:15:47.883Z,105.10
2017-11-03T04:18:14.919Z,109.43
2017-11-03T04:20:41.202Z,97.27
2017-11-03T04:23:07.458Z,90.57
2017-11-03T04:25:33.758Z,91.83
2017-11-03T04:28:00.086Z,87.03
2017-11-03T04:30:26.403Z,96.27
2017-11-03T04:32:52.698Z,98.97
2017-11-03T04:35:20.298Z,102.20
2017-11-03T04:37:46.559Z,100.90
2017-11-03T04:40:12.859Z,99.87
2017-11-03T04:42:39.163Z,101.33
2017-11-03T04:45:05.452Z,102.13
2017-11-03T04:47:31.762Z,91.40
2017-11-03T04:49:58.047Z,87.07
2017-11-03T04:52:25.074Z,78.90
2017-11-03T04:54:51.333Z,102.47
2017-11-03T04:57:17.627Z,88.90
2017-11-03T04:59:44.697Z,84.80
2017-11-03T05:02:10.967Z,86.23
2017-11-03T05:04:37.265Z,85.67
2017-11-03T05:07:03.543Z,89.90
2017-11-03T05:09:29.817Z,80.83
2017-11-03T05:11:56.097Z,86.60
2017-11-03T05:14:22.403Z,87.87
2017-11-03T05:16:48.679Z,97.03
2017-11-03T05:19:15.726Z,81.47
2017-11-03T05:21:42.747Z,88.33
2017-11-03T05:24:09.038Z,76.73
2017-11-03T05:26:35.342Z,78.20
2017-11-03T05:29:01.635Z,84.47
2017-11-03T05:31:27.919Z,82.80
2017-11-03T05:33:54.186Z,82.07
2017-11-03T05:36:20.496Z,81.63
2017-11-03T05:38:46.799Z,85.10
2017-11-03T05:41:13.098Z,85.47
2017-11-03T05:43:40.130Z,83.07
2017-11-03T05:46:06.419Z,85.93
2017-11-03T05:48:32.702Z,85.20
2017-11-03T05:50:59.739Z,80.07
2017-11-03T05:53:26.792Z,85.27
2017-11-03T05:55:53.066Z,88.53
2017-11-03T05:58:19.374Z,82.30
2017-11-03T06:00:45.668Z,77.03
2017-11-03T06:03:11.967Z,80.57
2017-11-03T06:05:38.250Z,87.30
2017-11-03T06:08:05.306Z,80.97
2017-11-03T06:10:31.566Z,81.40
2017-11-03T06:12:57.847Z,76.27
2017-11-03T06:15:24.141Z,70.63
2017-11-03T06:17:50.442Z,70.50
2017-11-03T06:20:16.738Z,75.10
2017-11-03T06:22:43.026Z,81.57
2017-11-03T06:25:10.114Z,76.63
2017-11-03T06:27:37.150Z,78.03
2017-11-03T06:30:03.475Z,72.20
2017-11-03T06:32:29.742Z,69.70
2017-11-03T06:34:56.015Z,70.17
2017-11-03T06:37:22.356Z,75.57
2017-11-03T06:39:49.473Z,70.03
2017-11-03T06:42:15.788Z,73.10
2017-11-03T06:44:42.162Z,69.80
2017-11-03T06:47:08.487Z,65.63
2017-11-03T06:49:35.534Z,72.03
2017-11-03T06:52:02.580Z,70.43
2017-11-03T06:54:29.625Z,71.03
2017-11-03T06:56:56.720Z,76.67
2017-11-03T06:59:23.055Z,69.53
2017-11-03T07:01:49.350Z,72.20
2017-11-03T07:04:15.669Z,74.13
2017-11-03T07:06:41.987Z,71.80
2017-11-03T07:09:09.038Z,67.20
2017-11-03T07:11:36.067Z,71.93
2017-11-03T07:14:03.112Z,65.80
2017-11-03T07:16:29.418Z,70.20
2017-11-03T07:18:55.737Z,66.93
2017-11-03T07:21:22.062Z,64.90
2017-11-03T07:23:48.422Z,64.80
2017-11-03T07:26:14.803Z,65.80
2017-11-03T07:28:41.218Z,77.33
2017-11-03T07:31:07.587Z,80.37
2017-11-03T07:33:33.932Z,72.03
2017-11-03T07:36:00.196Z,68.87
2017-11-03T07:38:27.238Z,75.80
2017-11-03T07:40:54.255Z,72.13
2017-11-03T07:43:20.545Z,67.83
2017-11-03T07:45:46.826Z,71.17
2017-11-03T07:48:13.152Z,72.07
2017-11-03T07:50:40.207Z,76.60
2017-11-03T07:53:07.242Z,71.77
2017-11-03T07:55:33.511Z,78.33
2017-11-03T07:57:59.819Z,76.27
2017-11-03T08:00:26.846Z,79.17
2017-11-03T08:02:53.134Z,79.73
2017-11-03T08:05:19.395Z,86.80
2017-11-03T08:07:45.719Z,83.33
2017-11-03T08:10:11.998Z,88.03
2017-11-03T08:12:38.327Z,86.97
2017-11-03T08:15:05.710Z,84.53
2017-11-03T08:17:31.982Z,86.80
2017-11-03T08:19:59.025Z,81.63
2017-11-03T08:22:25.308Z,88.50
2017-11-03T08:24:51.574Z,80.83
2017-11-03T08:27:17.843Z,90.23
2017-11-03T08:29:44.128Z,94.43
2017-11-03T08:32:10.427Z,89.83
2017-11-03T08:34:36.754Z,93.40
2017-11-03T08:37:03.046Z,86.70
2017-11-03T08:39:30.070Z,83.53
2017-11-03T08:41:56.347Z,79.57
2017-11-03T08:44:22.619Z,91.10
2017-11-03T08:46:48.908Z,85.73
2017-11-03T08:49:15.208Z,85.53
2017-11-03T08:51:41.507Z,87.73
2017-11-03T08:54:07.795Z,89.00
2017-11-03T08:56:34.098Z,94.73
2017-11-03T08:59:01.170Z,78.30
2017-11-03T09:01:27.494Z,85.03
2017-11-03T09:03:54.498Z,90.57
2017-11-03T09:06:21.590Z,83.50
2017-11-03T09:08:47.879Z,87.30
2017-11-03T09:11:14.913Z,88.63
2017-11-03T09:13:41.964Z,80.73
2017-11-03T09:16:09.030Z,84.23
2017-11-03T09:18:36.059Z,73.30
2017-11-03T09:21:03.169Z,80.53
2017-11-03T09:23:29.471Z,76.10
2017-11-03T09:25:55.754Z,75.50
2017-11-03T09:28:22.813Z,71.40
2017-11-03T09:30:49.828Z,78.97
2017-11-03T09:33:16.906Z,81.60
2017-11-03T09:35:43.944Z,79.17
2017-11-03T09:38:10.230Z,80.90
2017-11-03T09:40:36.524Z,80.73
2017-11-03T09:43:02.808Z,73.40
2017-11-03T09:45:30.129Z,64.13
2017-11-03T09:47:56.432Z,72.70
2017-11-03T09:50:23.449Z,78.00
2017-11-03T09:52:49.720Z,82.43
2017-11-03T09:55:16.742Z,79.73
2017-11-03T09:57:43.782Z,70.83
2017-11-03T10:00:10.815Z,81.30
2017-11-03T10:02:37.112Z,74.00
2017-11-03T10:05:03.400Z,76.80
2017-11-03T10:07:30.463Z,72.67
2017-11-03T10:09:56.778Z,66.07
2017-11-03T10:12:23.853Z,72.27
2017-11-03T10:14:50.187Z,77.03
2017-11-03T10:17:16.475Z,71.63
2017-11-03T10:19:43.555Z,63.20
2017-11-03T10:22:09.890Z,71.83
2017-11-03T10:24:36.194Z,66.73
2017-11-03T10:27:02.488Z,73.40
2017-11-03T10:29:28.824Z,65.67
2017-11-03T10:31:55.866Z,63.20
2017-11-03T10:34:22.198Z,62.50
2017-11-03T10:37:02.530Z,59.70
2017-11-03T10:39:28.835Z,62.80
2017-11-03T10:41:55.107Z,62.50
2017-11-03T10:44:21.395Z,64.90
2017-11-03T10:46:47.693Z,62.10
2017-11-03T10:49:13.988Z,82.33
2017-11-03T10:51:40.258Z,65.80
2017-11-03T10:54:06.551Z,63.30
2017-11-03T10:56:32.846Z,60.80
2017-11-03T10:58:59.145Z,56.87
2017-11-03T11:01:25.434Z,62.27
2017-11-03T11:03:52.455Z,58.93
2017-11-03T11:06:19.441Z,50.97
2017-11-03T11:08:46.482Z,59.80
2017-11-03T11:11:13.519Z,56.33
2017-11-03T11:13:40.634Z,59.93
2017-11-03T11:16:06.943Z,56.17
2017-11-03T11:18:33.247Z,54.93
2017-11-03T11:20:59.583Z,60.83
2017-11-03T11:23:25.882Z,58.03
2017-11-03T11:25:52.189Z,59.73
2017-11-03T11:28:18.493Z,54.47
2017-11-03T11:30:44.791Z,55.03
2017-11-03T11:33:11.076Z,50.20
2017-11-03T11:35:37.394Z,55.30
2017-11-03T11:38:03.680Z,57.90
2017-11-03T11:40:30.707Z,57.60
2017-11-03T11:42:57.789Z,62.40
2017-11-03T11:45:24.112Z,65.63
2017-11-03T11:47:50.420Z,50.13
2017-11-03T11:50:17.496Z,61.40
2017-11-03T11:52:43.803Z,55.17
2017-11-03T11:55:10.839Z,55.17
2017-11-03T11:57:37.878Z,51.50
2017-11-03T12:00:04.918Z,57.87
2017-11-03T12:02:31.970Z,53.73
2017-11-03T12:04:59.008Z,61.00
2017-11-03T12:07:26.053Z,61.17
2017-11-03T12:09:52.314Z,54.33
2017-11-03T12:12:18.591Z,54.30
2017-11-03T12:14:44.895Z,55.07
2017-11-03T12:17:11.174Z,51.37
2017-11-03T12:19:38.246Z,53.50
2017-11-03T12:22:04.540Z,48.20
2017-11-03T12:24:30.823Z,45.80
2017-11-03T12:26:57.847Z,40.90
2017-11-03T12:29:24.168Z,50.30
2017-11-03T12:31:51.187Z,44.97
2017-11-03T12:34:18.235Z,50.13
2017-11-03T12:36:45.304Z,47.20
2017-11-03T12:39:12.327Z,43.63
2017-11-03T12:41:39.387Z,41.73
2017-11-03T12:44:06.439Z,51.67
2017-11-03T12:46:32.735Z,41.47
2017-11-03T12:48:59.041Z,42.27
2017-11-03T12:51:25.383Z,42.13
2017-11-03T12:53:51.694Z,43.97
2017-11-03T12:56:17.982Z,42.70
2017-11-03T12:58:44.300Z,36.57
2017-11-03T13:01:11.343Z,42.30
2017-11-03T13:03:38.380Z,41.83
2017-11-03T13:06:04.691Z,40.97
2017-11-03T13:08:31.014Z,40.93
2017-11-03T13:10:57.310Z,42.60
2017-11-03T13:13:23.598Z,41.63
2017-11-03T13:15:49.876Z,40.00
2017-11-03T13:18:16.266Z,37.77
2017-11-03T13:20:42.583Z,34.90
2017-11-03T13:23:09.671Z,35.53
2017-11-03T13:25:35.963Z,31.23
2017-11-03T13:28:03.023Z,33.40
2017-11-03T13:30:29.339Z,31.97
2017-11-03T13:32:56.362Z,35.37
2017-11-03T13:35:22.666Z,31.53
2017-11-03T13:37:48.973Z,32.30
2017-11-03T13:40:15.292Z,32.73
2017-11-03T13:42:42.322Z,32.23
2017-11-03T13:45:08.595Z,32.43
2017-11-03T13:47:34.886Z,36.73
2017-11-03T13:50:02.023Z,30.60
2017-11-03T13:52:29.065Z,36.23
2017-11-03T13:54:55.345Z,33.70
2017-11-03T13:57:21.630Z,37.83
2017-11-03T13:59:47.915Z,32.67
2017-11-03T14:02:14.186Z,37.70
2017-11-03T14:04:40.470Z,35.93
2017-11-03T14:07:06.797Z,40.23
2017-11-03T14:09:33.090Z,37.50
2017-11-03T14:11:59.397Z,31.30
2017-11-03T14:14:26.466Z,31.70
2017-11-03T14:16:52.822Z,33.20
2017-11-03T14:19:19.110Z,33.00
2017-11-03T14:21:46.146Z,33.73
2017-11-03T14:24:13.190Z,31.77
2017-11-03T14:26:40.839Z,30.37
2017-11-03T14:29:07.224Z,30.43
2017-11-03T14:31:33.512Z,35.63
2017-11-03T14:33:59.798Z,32.67
2017-11-03T14:36:26.120Z,31.37
2017-11-03T14:38:52.483Z,34.07
2017-11-03T14:41:18.750Z,29.50
2017-11-03T14:43:45.065Z,28.60
2017-11-03T14:46:12.117Z,31.13
2017-11-03T14:48:38.413Z,25.60
2017-11-03T14:51:04.738Z,23.70
2017-11-03T14:53:31.063Z,24.40
2017-11-03T14:55:57.339Z,25.93
2017-11-03T14:58:24.383Z,27.57
2017-11-03T15:00:50.759Z,23.37
2017-11-03T15:03:17.082Z,26.53
2017-11-03T15:05:43.379Z,25.20
2017-11-03T15:08:10.406Z,26.37
2017-11-03T15:10:37.506Z,27.00
2017-11-03T15:13:03.798Z,25.60
2017-11-03T15:15:30.105Z,28.00
2017-11-03T15:17:58.229Z,23.60
2017-11-03T15:20:24.523Z,25.20
2017-11-03T15:22:50.833Z,25.90
2017-11-03T15:25:17.889Z,29.07
2017-11-03T15:27:44.976Z,23.63
2017-11-03T15:30:11.340Z,26.00
2017-11-03T15:32:37.634Z,26.87
2017-11-03T15:35:03.974Z,26.00
2017-11-03T15:37:30.346Z,26.13
2017-11-03T15:39:57.420Z,27.90
2017-11-03T15:42:23.726Z,25.87
2017-11-03T15:44:50.843Z,25.83
2017-11-03T15:47:17.202Z,25.40
2017-11-03T15:49:44.237Z,28.30
2017-11-03T15:52:10.518Z,32.77
2017-11-03T15:54:36.826Z,30.27
2017-11-03T15:57:03.213Z,28.83
2017-11-03T15:59:29.527Z,28.20
2017-11-03T16:01:55.810Z,28.87
2017-11-03T16:04:22.099Z,25.97
2017-11-03T16:06:48.385Z,28.00
2017-11-03T16:09:15.766Z,23.60
2017-11-03T16:11:42.072Z,28.67
2017-11-03T16:14:08.359Z,25.57
2017-11-03T16:16:35.390Z,26.60
2017-11-03T16:19:01.678Z,30.30
2017-11-03T16:21:29.195Z,35.93
2017-11-03T16:23:56.198Z,30.87
2017-11-03T16:26:22.494Z,32.03
2017-11-03T16:28:48.758Z,27.80
2017-11-03T16:31:15.057Z,25.30
2017-11-03T16:33:42.459Z,29.83
2017-11-03T16:36:08.716Z,24.27
2017-11-03T16:38:35.840Z,27.60
2017-11-03T16:41:02.142Z,29.47
2017-11-03T16:43:28.454Z,23.03
2017-11-03T16:45:55.367Z,26.47
2017-11-03T16:48:22.122Z,24.80
2017-11-03T16:50:48.457Z,24.63
2017-11-03T16:53:14.742Z,29.50
2017-11-03T16:55:41.782Z,24.23
2017-11-03T16:58:08.830Z,25.13
2017-11-03T17:00:35.131Z,30.40
2017-11-03T17:03:01.555Z,28.50
2017-11-03T17:05:27.867Z,23.83
2017-11-03T17:07:54.776Z,25.50
2017-11-03T17:10:21.824Z,25.60
2017-11-03T17:12:48.865Z,28.40
2017-11-03T17:15:15.874Z,27.23
2017-11-03T17:17:42.197Z,31.87
2017-11-03T17:20:08.494Z,27.63
2017-11-03T17:22:35.584Z,28.30
2017-11-03T17:25:01.978Z,28.23
2017-11-03T17:27:28.271Z,28.10
2017-11-03T17:29:55.362Z,29.53
2017-11-03T17:32:21.625Z,30.50
2017-11-03T17:34:47.922Z,29.77
2017-11-03T17:37:14.231Z,32.57
2017-11-03T17:39:40.510Z,26.57
2017-11-03T17:42:06.798Z,28.20
2017-11-03T17:44:33.114Z,29.63
2017-11-03T17:46:59.422Z,29.67
2017-11-03T17:49:26.460Z,30.03
2017-11-03T17:51:53.502Z,29.43
2017-11-03T17:54:20.523Z,28.97
2017-11-03T17:56:46.825Z,26.43
2017-11-03T17:59:13.859Z,28.83
2017-11-03T18:01:40.150Z,25.57
2017-11-03T18:04:07.320Z,28.30
2017-11-03T18:06:33.675Z,27.33
2017-11-03T18:08:59.971Z,25.77
2017-11-03T18:11:27.014Z,23.63
2017-11-03T18:13:53.324Z,29.93
2017-11-03T18:16:20.379Z,25.43
2017-11-03T18:18:46.678Z,27.67
2017-11-03T18:21:13.771Z,25.50
2017-11-03T18:23:40.080Z,25.83
2017-11-03T18:26:07.133Z,27.30
2017-11-03T18:28:34.182Z,24.67
2017-11-03T18:31:00.532Z,31.17
2017-11-03T18:33:26.837Z,25.43
2017-11-03T18:35:53.732Z,22.20
2017-11-03T18:38:19.843Z,22.70
2017-11-03T18:40:45.947Z,26.33
2017-11-03T18:43:12.034Z,23.23
2017-11-03T18:45:38.525Z,26.90
2017-11-03T18:48:04.618Z,25.53
2017-11-03T18:50:31.442Z,28.20
2017-11-03T18:52:57.573Z,25.30
2017-11-03T18:55:24.434Z,27.00
2017-11-03T18:57:50.503Z,29.50
2017-11-03T19:00:16.643Z,24.30
2017-11-03T19:02:42.721Z,26.00
2017-11-03T19:05:08.782Z,22.37
2017-11-03T19:07:34.892Z,26.50
2017-11-03T19:10:00.995Z,25.87
2017-11-03T19:12:27.071Z,26.37
2017-11-03T19:14:53.913Z,29.03
2017-11-03T19:17:19.983Z,28.20
2017-11-03T19:19:46.086Z,27.77
2017-11-03T19:22:12.175Z,24.20
2017-11-03T19:24:38.410Z,29.17
2017-11-03T19:27:04.514Z,28.30
2017-11-03T19:29:30.642Z,30.93
2017-11-03T19:31:56.711Z,28.93
2017-11-03T19:34:22.798Z,27.37
2017-11-03T19:36:48.876Z,26.53
2017-11-03T19:39:14.960Z,25.57
2017-11-03T19:41:41.771Z,25.67
2017-11-03T19:44:07.878Z,26.77
2017-11-03T19:46:33.954Z,25.63
2017-11-03T19:49:00.803Z,21.87
2017-11-03T19:51:27.626Z,23.10
2017-11-03T19:53:53.706Z,26.50
2017-11-03T19:56:19.778Z,25.73
2017-11-03T19:58:46.614Z,22.53
2017-11-03T20:01:12.696Z,24.80
2017-11-03T20:03:38.783Z,24.30
2017-11-03T20:06:04.884Z,27.80
2017-11-03T20:08:31.706Z,27.10
2017-11-03T20:10:57.822Z,24.00
2017-11-03T20:13:23.925Z,27.27
2017-11-03T20:15:50.053Z,25.60
2017-11-03T20:18:16.129Z,30.57
2017-11-03T20:20:42.950Z,24.43
2017-11-03T20:23:09.247Z,31.80
2017-11-03T20:25:35.549Z,26.93
2017-11-03T20:28:01.854Z,27.97
2017-11-03T20:30:28.894Z,29.70
2017-11-03T20:32:55.321Z,26.50
2017-11-03T20:35:22.367Z,29.50
2017-11-03T20:37:49.387Z,29.43
2017-11-03T20:40:15.691Z,26.87
2017-11-03T20:42:41.968Z,25.50
2017-11-03T20:45:09.015Z,23.57
2017-11-03T20:47:35.293Z,26.53
2017-11-03T20:50:01.584Z,25.93
2017-11-03T20:52:28.623Z,27.87
2017-11-03T20:54:55.670Z,28.20
2017-11-03T20:57:23.788Z,28.17
2017-11-03T20:59:50.100Z,29.80
2017-11-03T21:02:16.398Z,27.13
2017-11-03T21:04:43.419Z,26.37
2017-11-03T21:07:09.730Z,25.50
2017-11-03T21:09:36.015Z,31.97
2017-11-03T21:12:03.103Z,37.40
2017-11-03T21:14:29.495Z,29.20
2017-11-03T21:16:56.583Z,30.00
2017-11-03T21:19:23.006Z,30.03
2017-11-03T21:21:49.309Z,30.63
2017-11-03T21:24:15.644Z,29.40
2017-11-03T21:26:41.958Z,28.37
2017-11-03T21:29:08.979Z,27.27
2017-11-03T21:31:36.029Z,28.50
2017-11-03T21:34:02.440Z,26.97
2017-11-03T21:36:28.716Z,28.13
2017-11-03T21:38:55.796Z,25.17
2017-11-03T21:41:22.078Z,26.67
2017-11-03T21:43:48.462Z,25.97
2017-11-03T21:46:15.694Z,29.80
2017-11-03T21:48:44.587Z,25.77
2017-11-03T21:51:10.854Z,26.00
2017-11-03T21:53:37.922Z,29.67
2017-11-03T21:56:04.958Z,25.67
2017-11-03T21:58:31.359Z,35.00
2017-11-03T22:00:57.642Z,33.07
2017-11-03T22:03:25.952Z,26.83
2017-11-03T22:05:52.264Z,25.10
2017-11-03T22:08:18.543Z,24.60
2017-11-03T22:10:44.839Z,23.73
2017-11-03T22:13:11.135Z,26.03
2017-11-03T22:15:37.448Z,26.40
2017-11-03T22:18:04.467Z,23.77
2017-11-03T22:20:30.765Z,26.23
2017-11-03T22:22:57.039Z,24.20
2017-11-03T22:25:23.365Z,27.53
2017-11-03T22:27:49.667Z,22.77
2017-11-03T22:30:16.683Z,22.60
2017-11-03T22:32:43.030Z,25.17
2017-11-03T22:35:09.319Z,24.30
2017-11-03T22:37:35.618Z,25.23
2017-11-03T22:40:01.962Z,29.73
2017-11-03T22:42:28.998Z,29.93
2017-11-03T22:44:55.314Z,25.63
2017-11-03T22:47:23.453Z,22.40
2017-11-03T22:49:49.732Z,23.30
2017-11-03T22:52:16.045Z,26.87
2017-11-03T22:54:43.109Z,30.20
2017-11-03T22:57:09.452Z,23.13
2017-11-03T22:59:36.562Z,26.13
2017-11-03T23:02:02.910Z,28.73
2017-11-03T23:04:29.979Z,27.67
2017-11-03T23:06:57.034Z,26.87
2017-11-03T23:09:24.098Z,24.27
2017-11-03T23:11:50.391Z,27.80
2017-11-03T23:14:17.500Z,25.87
2017-11-03T23:16:43.808Z,26.35
2017-11-03T23:19:10.127Z,25.30
2017-11-03T23:21:36.451Z,27.70
2017-11-03T23:24:02.751Z,30.27
2017-11-03T23:26:29.017Z,23.33
2017-11-03T23:28:55.287Z,30.83
2017-11-03T23:31:21.577Z,22.57
2017-11-03T23:33:47.861Z,25.17
2017-11-03T23:36:14.921Z,24.23
2017-11-03T23:38:41.946Z,26.83
2017-11-03T23:41:08.238Z,27.97
2017-11-03T23:43:35.271Z,28.60
2017-11-03T23:46:01.562Z,26.57
2017-11-03T23:48:28.967Z,26.83
2017-11-03T23:50:55.271Z,25.33
2017-11-03T23:53:21.572Z,27.07
2017-11-03T23:55:48.608Z,27.90
2017-11-03T23:58:15.769Z,27.20
